createdAt,value
2017-05-23T00:00:19.853Z,3.60
2017-05-23T00:02:48.668Z,3.10
2017-05-23T00:05:17.541Z,3.70
2017-05-23T00:07:46.482Z,3.18
2017-05-23T00:10:15.314Z,3.30
2017-05-23T00:12:44.138Z,3.45
2017-05-23T00:15:12.970Z,3.48
2017-05-23T00:17:41.770Z,3.62
2017-05-23T00:20:10.578Z,3.33
2017-05-23T00:22:39.513Z,4.05
2017-05-23T00:25:08.394Z,3.17
2017-05-23T00:27:37.292Z,3.05
2017-05-23T00:30:06.137Z,3.62
2017-05-23T00:32:34.936Z,3.33
2017-05-23T00:35:03.769Z,3.18
2017-05-23T00:37:32.582Z,3.27
2017-05-23T00:40:01.390Z,3.22
2017-05-23T00:42:30.230Z,4.32
2017-05-23T00:44:59.046Z,3.83
2017-05-23T00:47:27.849Z,3.40
2017-05-23T00:49:56.696Z,3.00
2017-05-23T00:52:25.501Z,3.63
2017-05-23T00:54:54.332Z,3.87
2017-05-23T00:57:23.134Z,3.97
2017-05-23T00:59:51.937Z,4.15
2017-05-23T01:02:20.766Z,3.42
2017-05-23T01:04:49.586Z,3.73
2017-05-23T01:07:18.409Z,3.70
2017-05-23T01:09:47.222Z,3.30
2017-05-23T01:12:16.092Z,3.78
2017-05-23T01:14:44.882Z,3.53
2017-05-23T01:17:13.691Z,3.62
2017-05-23T01:19:42.534Z,3.63
2017-05-23T01:22:11.333Z,3.27
2017-05-23T01:24:40.137Z,4.10
2017-05-23T01:27:09.073Z,3.60
2017-05-23T01:29:37.879Z,3.85
2017-05-23T01:32:06.681Z,3.63
2017-05-23T01:34:35.501Z,3.23
2017-05-23T01:37:04.365Z,3.93
2017-05-23T01:39:33.171Z,3.90
2017-05-23T01:42:01.978Z,3.87
2017-05-23T01:44:30.813Z,3.55
2017-05-23T01:46:59.631Z,3.98
2017-05-23T01:49:28.436Z,3.72
2017-05-23T01:51:57.303Z,4.65
2017-05-23T01:54:26.120Z,4.03
2017-05-23T01:56:54.933Z,4.18
2017-05-23T01:59:23.762Z,3.95
2017-05-23T02:01:52.582Z,3.97
2017-05-23T02:04:21.386Z,4.25
2017-05-23T02:06:50.215Z,4.38
2017-05-23T02:09:19.056Z,3.45
2017-05-23T02:11:47.862Z,3.65
2017-05-23T02:14:16.675Z,4.12
2017-05-23T02:16:45.506Z,4.40
2017-05-23T02:19:14.314Z,4.22
2017-05-23T02:21:43.159Z,5.10
2017-05-23T02:24:11.964Z,4.43
2017-05-23T02:26:40.771Z,4.27
2017-05-23T02:29:09.597Z,4.35
2017-05-23T02:31:38.406Z,4.68
2017-05-23T02:34:07.239Z,5.00
2017-05-23T02:36:36.049Z,4.35
2017-05-23T02:39:04.873Z,5.10
2017-05-23T02:41:33.722Z,4.67
2017-05-23T02:44:02.539Z,4.30
2017-05-23T02:46:31.359Z,4.73
2017-05-23T02:49:00.230Z,4.00
2017-05-23T02:51:29.031Z,4.68
2017-05-23T02:53:57.842Z,5.05
2017-05-23T02:56:26.690Z,4.75
2017-05-23T02:58:55.522Z,4.85
2017-05-23T03:01:24.342Z,3.90
2017-05-23T03:03:53.179Z,4.97
2017-05-23T03:06:22.010Z,5.50
2017-05-23T03:08:50.839Z,4.82
2017-05-23T03:11:19.714Z,4.80
2017-05-23T03:13:48.510Z,4.68
2017-05-23T03:16:17.331Z,4.90
2017-05-23T03:18:46.189Z,4.95
2017-05-23T03:21:15.004Z,5.17
2017-05-23T03:23:43.837Z,4.37
2017-05-23T03:26:12.687Z,4.78
2017-05-23T03:28:41.495Z,5.55
2017-05-23T03:31:10.318Z,5.70
2017-05-23T03:33:39.176Z,5.17
2017-05-23T03:36:08.023Z,5.55
2017-05-23T03:38:36.842Z,4.93
2017-05-23T03:41:05.670Z,4.63
2017-05-23T03:43:34.509Z,4.80
2017-05-23T03:46:03.319Z,4.63
2017-05-23T03:48:32.148Z,5.02
2017-05-23T03:51:00.954Z,5.08
2017-05-23T03:53:29.811Z,4.85
2017-05-23T03:55:58.618Z,5.12
2017-05-23T03:58:27.430Z,4.90
2017-05-23T04:00:56.267Z,5.25
2017-05-23T04:03:25.171Z,4.85
2017-05-23T04:05:53.982Z,4.78
2017-05-23T04:08:22.792Z,5.45
2017-05-23T04:10:51.694Z,5.40
2017-05-23T04:13:20.716Z,5.02
2017-05-23T04:15:49.681Z,4.98
2017-05-23T04:18:18.601Z,4.73
2017-05-23T04:20:47.560Z,5.22
2017-05-23T04:23:16.603Z,4.53
2017-05-23T04:25:45.672Z,5.47
2017-05-23T04:28:14.662Z,4.98
2017-05-23T04:30:43.623Z,4.63
2017-05-23T04:33:12.566Z,4.52
2017-05-23T04:35:41.571Z,4.67
2017-05-23T04:38:10.546Z,4.50
2017-05-23T04:40:39.517Z,4.72
2017-05-23T04:43:08.552Z,5.07
2017-05-23T04:45:37.564Z,5.00
2017-05-23T04:48:06.532Z,4.13
2017-05-23T04:50:35.570Z,5.03
2017-05-23T04:53:04.564Z,4.52
2017-05-23T04:55:35.254Z,4.25
2017-05-23T04:58:04.448Z,4.70
2017-05-23T05:00:33.505Z,4.40
2017-05-23T05:03:02.690Z,3.90
2017-05-23T05:05:31.622Z,4.52
2017-05-23T05:08:08.116Z,4.22
2017-05-23T05:10:38.173Z,5.12
2017-05-23T05:13:07.425Z,5.40
2017-05-23T05:15:36.396Z,5.05
2017-05-23T05:18:05.531Z,4.20
2017-05-23T05:20:34.676Z,5.17
2017-05-23T05:25:38.840Z,5.17
2017-05-23T05:28:07.703Z,4.98
2017-05-23T05:30:36.543Z,5.20
2017-05-23T05:33:05.379Z,4.80
2017-05-23T05:35:34.224Z,4.68
2017-05-23T05:38:03.018Z,5.42
2017-05-23T05:40:31.848Z,6.00
2017-05-23T05:43:00.675Z,6.08
2017-05-23T05:45:29.546Z,6.72
2017-05-23T05:47:58.354Z,6.73
2017-05-23T05:50:27.181Z,6.95
2017-05-23T05:52:55.990Z,6.47
2017-05-23T05:55:24.820Z,7.07
2017-05-23T05:57:53.656Z,7.78
2017-05-23T06:00:22.515Z,8.37
2017-05-23T06:02:51.319Z,7.53
2017-05-23T06:05:20.126Z,7.72
2017-05-23T06:07:48.965Z,7.58
2017-05-23T06:10:17.946Z,7.10
2017-05-23T06:12:52.467Z,6.55
2017-05-23T06:15:21.327Z,6.88
2017-05-23T06:17:50.242Z,6.90
2017-05-23T06:20:19.131Z,7.23
2017-05-23T06:22:47.989Z,7.02
2017-05-23T06:25:16.831Z,7.20
2017-05-23T06:27:45.723Z,8.15
2017-05-23T06:30:14.575Z,8.12
2017-05-23T06:32:43.428Z,7.72
2017-05-23T06:35:12.372Z,8.02
2017-05-23T06:37:41.275Z,8.07
2017-05-23T06:40:10.124Z,8.02
2017-05-23T06:42:38.943Z,9.07
2017-05-23T06:45:07.806Z,8.38
2017-05-23T06:47:36.632Z,9.18
2017-05-23T06:50:05.500Z,9.37
2017-05-23T06:52:34.324Z,9.57
2017-05-23T06:55:03.146Z,10.22
2017-05-23T06:57:33.063Z,9.95
2017-05-23T07:00:01.887Z,10.12
2017-05-23T07:02:30.712Z,10.42
2017-05-23T07:04:59.566Z,10.65
2017-05-23T07:07:28.375Z,9.28
2017-05-23T07:09:57.250Z,9.83
2017-05-23T07:12:26.074Z,9.92
2017-05-23T07:14:54.891Z,9.90
2017-05-23T07:17:23.728Z,9.42
2017-05-23T07:19:52.547Z,9.40
2017-05-23T07:22:21.398Z,11.03
2017-05-23T07:24:50.222Z,10.20
2017-05-23T07:27:19.046Z,9.87
2017-05-23T07:29:47.898Z,9.83
2017-05-23T07:32:16.729Z,11.23
2017-05-23T07:34:45.566Z,10.67
2017-05-23T07:37:14.421Z,10.43
2017-05-23T07:39:43.247Z,10.08
2017-05-23T07:42:12.184Z,9.70
2017-05-23T07:44:41.036Z,9.07
2017-05-23T07:47:09.848Z,8.77
2017-05-23T07:49:38.693Z,9.30
2017-05-23T07:52:07.522Z,9.62
2017-05-23T07:54:36.462Z,9.57
2017-05-23T07:57:05.306Z,9.53
2017-05-23T07:59:34.114Z,8.25
2017-05-23T08:02:03.025Z,10.57
2017-05-23T08:04:32.105Z,9.72
2017-05-23T08:07:00.939Z,9.02
2017-05-23T08:09:29.840Z,8.73
2017-05-23T08:11:58.692Z,9.05
2017-05-23T08:14:27.523Z,8.58
2017-05-23T08:16:56.331Z,8.78
2017-05-23T08:19:25.202Z,10.12
2017-05-23T08:21:54.023Z,10.12
2017-05-23T08:24:22.838Z,9.50
2017-05-23T08:26:51.682Z,9.80
2017-05-23T08:29:20.526Z,8.08
2017-05-23T08:31:49.377Z,9.92
2017-05-23T08:34:17.486Z,9.62
2017-05-23T08:36:46.327Z,10.98
2017-05-23T08:39:15.155Z,10.73
2017-05-23T08:41:44.043Z,11.73
2017-05-23T08:44:12.878Z,9.92
2017-05-23T08:46:41.715Z,10.52
2017-05-23T08:49:10.628Z,10.62
2017-05-23T08:51:39.471Z,10.43
2017-05-23T08:54:07.527Z,10.07
2017-05-23T08:56:36.362Z,9.43
2017-05-23T08:59:05.174Z,8.90
2017-05-23T09:01:34.006Z,10.90
2017-05-23T09:04:02.851Z,9.38
2017-05-23T09:06:31.670Z,9.83
2017-05-23T09:09:00.486Z,9.48
2017-05-23T09:11:29.314Z,9.65
2017-05-23T09:13:58.132Z,8.70
2017-05-23T09:16:26.986Z,9.73
2017-05-23T09:18:55.810Z,10.48
2017-05-23T09:21:24.886Z,9.43
2017-05-23T09:23:53.719Z,9.67
2017-05-23T09:26:38.258Z,11.42
2017-05-23T09:29:07.103Z,9.60
2017-05-23T09:31:35.954Z,10.88
2017-05-23T09:34:04.921Z,9.02
2017-05-23T09:36:33.811Z,8.55
2017-05-23T09:39:02.662Z,8.20
2017-05-23T09:41:31.502Z,9.90
2017-05-23T09:44:00.340Z,9.52
2017-05-23T09:46:29.212Z,11.23
2017-05-23T09:48:58.094Z,11.25
2017-05-23T09:51:26.997Z,9.42
2017-05-23T09:53:55.831Z,8.95
2017-05-23T09:56:24.670Z,9.38
2017-05-23T09:58:53.475Z,9.12
2017-05-23T10:01:22.322Z,9.23
2017-05-23T10:03:51.155Z,8.43
2017-05-23T10:06:19.987Z,8.18
2017-05-23T10:08:48.841Z,8.75
2017-05-23T10:11:17.679Z,7.68
2017-05-23T10:13:46.499Z,9.27
2017-05-23T10:16:15.387Z,9.17
2017-05-23T10:18:44.208Z,9.18
2017-05-23T10:21:13.111Z,7.85
2017-05-23T10:23:41.954Z,6.95
2017-05-23T10:26:10.771Z,7.43
2017-05-23T10:28:39.619Z,6.33
2017-05-23T10:31:08.427Z,6.95
2017-05-23T10:33:37.242Z,6.25
2017-05-23T10:36:06.066Z,6.65
2017-05-23T10:38:34.894Z,6.30
2017-05-23T10:41:03.747Z,7.87
2017-05-23T10:43:32.564Z,7.13
2017-05-23T10:46:01.366Z,5.20
2017-05-23T10:48:30.204Z,5.07
2017-05-23T10:50:59.742Z,6.07
2017-05-23T10:53:28.586Z,6.15
2017-05-23T10:55:57.431Z,6.35
2017-05-23T10:58:26.243Z,6.02
2017-05-23T11:00:55.070Z,5.37
2017-05-23T11:03:24.033Z,5.50
2017-05-23T11:05:52.839Z,5.40
2017-05-23T11:08:21.646Z,6.48
2017-05-23T11:10:50.498Z,6.67
2017-05-23T11:13:19.327Z,5.58
2017-05-23T11:15:48.151Z,4.67
2017-05-23T11:18:16.958Z,5.52
2017-05-23T11:20:45.782Z,5.07
2017-05-23T11:23:14.643Z,4.33
2017-05-23T11:25:43.475Z,4.42
2017-05-23T11:28:12.345Z,5.42
2017-05-23T11:30:41.126Z,3.57
2017-05-23T11:33:10.040Z,3.53
2017-05-23T11:35:38.822Z,3.00
2017-05-23T11:38:07.643Z,3.50
2017-05-23T11:40:36.556Z,3.65
2017-05-23T11:43:05.426Z,2.85
2017-05-23T11:45:34.308Z,2.73
2017-05-23T11:48:03.099Z,2.80
2017-05-23T11:50:31.910Z,2.62
2017-05-23T11:53:00.785Z,3.30
2017-05-23T11:55:29.595Z,2.92
2017-05-23T11:57:58.406Z,2.87
2017-05-23T12:00:27.246Z,3.03
2017-05-23T12:02:56.117Z,2.57
2017-05-23T12:05:24.940Z,2.57
2017-05-23T12:07:53.777Z,2.50
2017-05-23T12:10:22.610Z,2.75
2017-05-23T12:12:51.427Z,2.55
2017-05-23T12:15:20.339Z,2.08
2017-05-23T12:17:49.170Z,1.83
2017-05-23T12:20:17.975Z,2.13
2017-05-23T12:22:46.880Z,2.40
2017-05-23T12:25:15.682Z,2.18
2017-05-23T12:27:44.536Z,2.28
2017-05-23T12:30:13.373Z,1.95
2017-05-23T12:32:42.175Z,1.65
2017-05-23T12:35:11.021Z,1.38
2017-05-23T12:37:39.910Z,1.40
2017-05-23T12:40:08.721Z,1.40
2017-05-23T12:42:37.559Z,1.42
2017-05-23T12:45:06.386Z,1.52
2017-05-23T12:47:35.231Z,1.00
2017-05-23T12:50:04.071Z,1.27
2017-05-23T12:52:32.868Z,1.38
2017-05-23T12:55:01.725Z,1.20
2017-05-23T12:57:30.523Z,1.20
2017-05-23T12:59:59.356Z,1.20
2017-05-23T13:02:28.179Z,1.75
2017-05-23T13:04:56.990Z,1.35
2017-05-23T13:07:25.864Z,0.97
2017-05-23T13:09:54.663Z,0.95
2017-05-23T13:12:23.479Z,1.02
2017-05-23T13:14:52.309Z,1.35
2017-05-23T13:17:21.114Z,1.42
2017-05-23T13:19:50.010Z,1.90
2017-05-23T13:22:18.853Z,1.60
2017-05-23T13:24:47.681Z,1.53
2017-05-23T13:27:16.791Z,1.48
2017-05-23T13:29:45.626Z,1.68
2017-05-23T13:32:14.426Z,1.97
2017-05-23T13:34:43.299Z,1.83
2017-05-23T13:37:12.108Z,1.53
2017-05-23T13:39:40.936Z,1.90
2017-05-23T13:42:09.779Z,2.28
2017-05-23T13:44:38.613Z,1.65
2017-05-23T13:47:07.423Z,1.75
2017-05-23T13:49:36.268Z,1.53
2017-05-23T13:52:05.089Z,1.92
2017-05-23T13:54:34.343Z,1.98
2017-05-23T13:57:03.177Z,1.65
2017-05-23T13:59:31.990Z,1.63
2017-05-23T14:02:00.831Z,1.80
2017-05-23T14:04:29.665Z,1.90
2017-05-23T14:06:58.506Z,2.10
2017-05-23T14:09:27.341Z,1.68
2017-05-23T14:11:56.236Z,1.58
2017-05-23T14:14:25.057Z,1.68
2017-05-23T14:16:53.875Z,1.93
2017-05-23T14:19:22.711Z,1.77
2017-05-23T14:21:51.527Z,1.78
2017-05-23T14:24:20.334Z,1.70
2017-05-23T14:26:49.252Z,1.78
2017-05-23T14:29:18.780Z,1.42
2017-05-23T14:31:47.662Z,1.87
2017-05-23T14:34:16.474Z,1.88
2017-05-23T14:36:45.299Z,2.02
2017-05-23T14:39:14.135Z,1.42
2017-05-23T14:41:42.950Z,2.20
2017-05-23T14:44:11.811Z,1.57
2017-05-23T14:46:40.627Z,1.38
2017-05-23T14:49:09.442Z,1.53
2017-05-23T14:51:38.334Z,1.55
2017-05-23T14:54:07.167Z,1.48
2017-05-23T14:56:35.982Z,1.25
2017-05-23T14:59:04.817Z,1.50
2017-05-23T15:01:33.639Z,1.62
2017-05-23T15:04:02.455Z,1.92
2017-05-23T15:06:31.275Z,1.45
2017-05-23T15:09:00.123Z,1.12
2017-05-23T15:11:28.935Z,1.27
2017-05-23T15:13:57.817Z,1.15
2017-05-23T15:16:26.647Z,1.65
2017-05-23T15:18:55.526Z,1.95
2017-05-23T15:21:24.324Z,1.75
2017-05-23T15:23:53.223Z,1.70
2017-05-23T15:26:22.052Z,1.60
2017-05-23T15:28:50.876Z,2.08
2017-05-23T15:31:19.714Z,1.68
2017-05-23T15:33:48.575Z,2.22
2017-05-23T15:36:17.406Z,1.50
2017-05-23T15:38:46.219Z,1.70
2017-05-23T15:41:15.023Z,2.20
2017-05-23T15:43:43.958Z,2.38
2017-05-23T15:46:12.767Z,1.90
2017-05-23T15:48:41.617Z,2.00
2017-05-23T15:51:10.491Z,2.13
2017-05-23T15:53:39.333Z,1.90
2017-05-23T15:56:08.203Z,1.37
2017-05-23T15:58:37.319Z,1.97
2017-05-23T16:01:06.161Z,1.45
2017-05-23T16:03:34.975Z,1.70
2017-05-23T16:06:03.810Z,2.23
2017-05-23T16:08:32.627Z,1.85
2017-05-23T16:11:01.432Z,2.52
2017-05-23T16:13:30.287Z,1.80
2017-05-23T16:15:59.129Z,2.15
2017-05-23T16:18:27.950Z,2.17
2017-05-23T16:20:56.778Z,1.70
2017-05-23T16:23:25.587Z,1.83
2017-05-23T16:25:54.398Z,1.82
2017-05-23T16:28:23.232Z,1.52
2017-05-23T16:30:52.049Z,2.23
2017-05-23T16:33:20.878Z,1.68
2017-05-23T16:35:49.760Z,1.72
2017-05-23T16:38:18.568Z,1.68
2017-05-23T16:40:47.390Z,1.72
2017-05-23T16:43:16.270Z,1.72
2017-05-23T16:45:45.117Z,1.65
2017-05-23T16:48:13.977Z,1.38
2017-05-23T16:50:42.839Z,1.67
2017-05-23T16:53:11.670Z,1.65
2017-05-23T16:55:40.494Z,1.87
2017-05-23T16:58:09.312Z,1.70
2017-05-23T17:00:38.170Z,1.52
2017-05-23T17:03:07.003Z,1.50
2017-05-23T17:05:35.830Z,1.85
2017-05-23T17:08:04.651Z,1.60
2017-05-23T17:10:33.511Z,2.18
2017-05-23T17:13:02.360Z,2.17
2017-05-23T17:15:31.184Z,2.00
2017-05-23T17:18:00.064Z,2.10
2017-05-23T17:20:28.867Z,2.00
2017-05-23T17:22:57.695Z,2.20
2017-05-23T17:25:26.606Z,1.80
2017-05-23T17:27:55.472Z,1.83
2017-05-23T17:30:24.290Z,2.25
2017-05-23T17:32:53.184Z,1.92
2017-05-23T17:35:22.060Z,2.32
2017-05-23T17:37:50.867Z,1.78
2017-05-23T17:40:19.707Z,2.00
2017-05-23T17:42:48.532Z,2.28
2017-05-23T17:45:17.360Z,1.73
2017-05-23T17:47:46.209Z,2.38
2017-05-23T17:50:15.018Z,2.22
2017-05-23T17:52:43.836Z,2.30
2017-05-23T17:55:13.004Z,2.05
2017-05-23T17:57:41.823Z,2.42
2017-05-23T18:00:10.719Z,2.15
2017-05-23T18:02:39.484Z,3.17
2017-05-23T18:05:08.290Z,2.52
2017-05-23T18:07:37.123Z,2.85
2017-05-23T18:10:05.968Z,2.62
2017-05-23T18:12:34.795Z,3.22
2017-05-23T18:15:03.663Z,2.23
2017-05-23T18:17:32.482Z,2.60
2017-05-23T18:20:01.286Z,3.22
2017-05-23T18:22:30.130Z,3.10
2017-05-23T18:24:58.943Z,3.62
2017-05-23T18:27:27.767Z,3.77
2017-05-23T18:29:56.640Z,3.75
2017-05-23T18:32:25.473Z,4.33
2017-05-23T18:34:54.299Z,4.82
2017-05-23T18:37:23.183Z,4.88
2017-05-23T18:39:51.994Z,4.28
2017-05-23T18:42:20.817Z,4.23
2017-05-23T18:44:49.690Z,3.83
2017-05-23T18:47:18.543Z,4.15
2017-05-23T18:49:47.363Z,4.32
2017-05-23T18:52:16.203Z,3.42
2017-05-23T18:54:45.055Z,3.98
2017-05-23T18:57:13.863Z,3.57
2017-05-23T18:59:42.703Z,4.90
2017-05-23T19:02:11.537Z,3.07
2017-05-23T19:04:40.375Z,3.67
2017-05-23T19:07:09.214Z,3.75
2017-05-23T19:09:38.031Z,3.75
2017-05-23T19:12:06.907Z,3.90
2017-05-23T19:14:35.824Z,3.77
2017-05-23T19:17:04.781Z,4.57
2017-05-23T19:19:33.737Z,3.73
2017-05-23T19:22:02.649Z,3.92
2017-05-23T19:24:31.506Z,3.88
2017-05-23T19:27:00.488Z,3.38
2017-05-23T19:29:29.333Z,2.78
2017-05-23T19:31:58.154Z,3.03
2017-05-23T19:34:27.067Z,2.92
2017-05-23T19:36:55.899Z,3.55
2017-05-23T19:39:24.739Z,2.80
2017-05-23T19:41:53.664Z,2.60
2017-05-23T19:44:22.546Z,2.35
2017-05-23T19:46:51.584Z,3.20
2017-05-23T19:49:20.501Z,2.90
2017-05-23T19:51:49.283Z,2.22
2017-05-23T19:54:18.174Z,2.27
2017-05-23T19:56:47.019Z,2.98
2017-05-23T19:59:16.039Z,2.18
2017-05-23T20:01:44.879Z,2.38
2017-05-23T20:04:13.880Z,2.38
2017-05-23T20:06:42.784Z,2.00
2017-05-23T20:09:11.733Z,2.65
2017-05-23T20:11:40.564Z,1.85
2017-05-23T20:14:09.376Z,2.27
2017-05-23T20:16:38.191Z,2.28
2017-05-23T20:19:07.034Z,2.05
2017-05-23T20:21:35.859Z,2.87
2017-05-23T20:24:04.820Z,2.68
2017-05-23T20:26:33.639Z,1.70
2017-05-23T20:29:02.469Z,2.13
2017-05-23T20:31:31.337Z,2.02
2017-05-23T20:34:00.199Z,1.85
2017-05-23T20:36:29.006Z,2.15
2017-05-23T20:38:57.947Z,1.65
2017-05-23T20:41:26.798Z,1.90
2017-05-23T20:43:55.631Z,2.05
2017-05-23T20:46:24.569Z,1.38
2017-05-23T20:48:53.424Z,1.30
2017-05-23T20:51:22.267Z,1.70
2017-05-23T20:53:51.063Z,1.20
2017-05-23T20:56:19.899Z,1.40
2017-05-23T20:58:48.727Z,1.58
2017-05-23T21:01:17.551Z,1.10
2017-05-23T21:03:46.550Z,0.95
2017-05-23T21:06:15.398Z,1.38
2017-05-23T21:08:44.207Z,1.22
2017-05-23T21:11:13.031Z,1.05
2017-05-23T21:13:41.900Z,1.27
2017-05-23T21:16:10.698Z,0.88
2017-05-23T21:18:39.507Z,1.70
2017-05-23T21:21:08.348Z,0.98
2017-05-23T21:23:37.205Z,0.80
2017-05-23T21:26:05.991Z,0.90
2017-05-23T21:28:34.826Z,1.02
2017-05-23T21:31:03.638Z,0.90
2017-05-23T21:33:32.451Z,1.45
2017-05-23T21:36:01.296Z,1.20
2017-05-23T21:38:30.100Z,1.30
2017-05-23T21:40:58.952Z,1.32
2017-05-23T21:43:27.821Z,1.40
2017-05-23T21:45:56.659Z,0.83
2017-05-23T21:48:25.505Z,1.02
2017-05-23T21:50:54.343Z,0.73
2017-05-23T21:53:23.176Z,1.02
2017-05-23T21:55:51.999Z,1.15
2017-05-23T21:58:20.814Z,0.85
2017-05-23T22:00:49.767Z,1.32
2017-05-23T22:03:18.664Z,0.90
2017-05-23T22:05:47.454Z,0.98
2017-05-23T22:08:16.348Z,1.28
2017-05-23T22:10:45.158Z,1.13
2017-05-23T22:13:13.983Z,1.12
2017-05-23T22:15:42.823Z,1.08
2017-05-23T22:18:11.711Z,0.75
2017-05-23T22:20:40.627Z,1.00
2017-05-23T22:23:09.562Z,1.28
2017-05-23T22:25:38.386Z,0.98
2017-05-23T22:28:07.203Z,1.23
2017-05-23T22:30:36.038Z,0.85
2017-05-23T22:33:05.002Z,1.12
2017-05-23T22:35:33.807Z,0.98
2017-05-23T22:38:02.630Z,1.18
2017-05-23T22:40:31.443Z,0.93
2017-05-23T22:43:00.254Z,1.25
2017-05-23T22:45:29.079Z,0.80
2017-05-23T22:47:57.901Z,0.93
2017-05-23T22:50:26.726Z,0.70
2017-05-23T22:52:55.535Z,0.95
2017-05-23T22:55:24.423Z,0.90
2017-05-23T22:57:53.284Z,0.98
2017-05-23T23:00:22.149Z,1.17
2017-05-23T23:02:50.978Z,0.90
2017-05-23T23:05:19.814Z,0.80
2017-05-23T23:07:48.619Z,1.00
2017-05-23T23:10:17.489Z,2.90
2017-05-23T23:12:49.275Z,0.80
2017-05-23T23:15:18.183Z,1.00
2017-05-23T23:17:46.993Z,0.97
2017-05-23T23:20:15.805Z,2.20
2017-05-23T23:22:44.646Z,1.00
2017-05-23T23:25:13.455Z,0.80
2017-05-23T23:27:42.262Z,0.80
2017-05-23T23:30:11.108Z,0.93
2017-05-23T23:32:39.928Z,1.10
2017-05-23T23:35:08.762Z,1.00
2017-05-23T23:37:37.597Z,1.03
2017-05-23T23:40:06.393Z,1.05
2017-05-23T23:42:35.258Z,0.90
2017-05-23T23:45:04.157Z,1.23
2017-05-23T23:47:32.962Z,1.00
2017-05-23T23:50:01.773Z,1.10
2017-05-23T23:52:30.639Z,1.20
2017-05-23T23:54:59.475Z,0.90
2017-05-23T23:57:28.287Z,0.95
2017-05-23T23:59:57.115Z,0.90
